sensor_id;sensor_type;location;lat;lon;timestamp;P1;durP1;ratioP1;P2;durP2;ratioP2
18267;SDS011;9260;49.998;19.880;2022-12-29T00:07:08;189.43;;;83.50;;
18267;SDS011;9260;49.998;19.880;2022-12-29T00:17:11;183.40;;;82.73;;
18267;SDS011;9260;49.998;19.880;2022-12-29T00:27:17;180.47;;;82.13;;
18267;SDS011;9260;49.998;19.880;2022-12-29T00:37:39;187.83;;;85.30;;
18267;SDS011;9260;49.998;19.880;2022-12-29T00:48:04;186.77;;;85.17;;
18267;SDS011;9260;49.998;19.880;2022-12-29T00:58:08;187.47;;;84.27;;
18267;SDS011;9260;49.998;19.880;2022-12-29T01:08:12;193.80;;;88.27;;
18267;SDS011;9260;49.998;19.880;2022-12-29T01:18:16;183.77;;;84.73;;
18267;SDS011;9260;49.998;19.880;2022-12-29T01:28:21;188.53;;;83.47;;
18267;SDS011;9260;49.998;19.880;2022-12-29T01:38:27;184.47;;;84.73;;
18267;SDS011;9260;49.998;19.880;2022-12-29T01:48:32;189.37;;;85.33;;
18267;SDS011;9260;49.998;19.880;2022-12-29T01:58:37;184.80;;;79.10;;
18267;SDS011;9260;49.998;19.880;2022-12-29T02:08:47;190.23;;;85.93;;
18267;SDS011;9260;49.998;19.880;2022-12-29T02:18:59;188.37;;;84.30;;
18267;SDS011;9260;49.998;19.880;2022-12-29T02:29:51;187.00;;;82.23;;
18267;SDS011;9260;49.998;19.880;2022-12-29T02:40:22;186.80;;;83.10;;
18267;SDS011;9260;49.998;19.880;2022-12-29T02:50:32;183.00;;;82.23;;
18267;SDS011;9260;49.998;19.880;2022-12-29T03:00:43;180.53;;;81.83;;
18267;SDS011;9260;49.998;19.880;2022-12-29T03:10:59;182.40;;;82.00;;
18267;SDS011;9260;49.998;19.880;2022-12-29T03:21:08;188.93;;;86.53;;
18267;SDS011;9260;49.998;19.880;2022-12-29T03:31:16;191.43;;;85.93;;
18267;SDS011;9260;49.998;19.880;2022-12-29T03:41:26;189.90;;;87.27;;
18267;SDS011;9260;49.998;19.880;2022-12-29T03:51:36;185.93;;;85.07;;
18267;SDS011;9260;49.998;19.880;2022-12-29T04:01:42;187.80;;;81.93;;
18267;SDS011;9260;49.998;19.880;2022-12-29T04:11:47;190.97;;;85.17;;
18267;SDS011;9260;49.998;19.880;2022-12-29T04:21:53;185.07;;;82.20;;
18267;SDS011;9260;49.998;19.880;2022-12-29T04:31:57;193.67;;;86.40;;
18267;SDS011;9260;49.998;19.880;2022-12-29T04:42:05;191.33;;;84.37;;
18267;SDS011;9260;49.998;19.880;2022-12-29T04:52:08;192.90;;;89.20;;
18267;SDS011;9260;49.998;19.880;2022-12-29T05:02:14;187.80;;;85.27;;
18267;SDS011;9260;49.998;19.880;2022-12-29T05:12:21;194.37;;;85.37;;
18267;SDS011;9260;49.998;19.880;2022-12-29T05:22:34;196.77;;;86.50;;
18267;SDS011;9260;49.998;19.880;2022-12-29T05:32:39;192.87;;;84.30;;
18267;SDS011;9260;49.998;19.880;2022-12-29T05:42:45;189.47;;;83.40;;
18267;SDS011;9260;49.998;19.880;2022-12-29T05:53:06;182.77;;;78.77;;
18267;SDS011;9260;49.998;19.880;2022-12-29T06:03:12;183.67;;;82.03;;
18267;SDS011;9260;49.998;19.880;2022-12-29T06:13:17;188.97;;;82.87;;
18267;SDS011;9260;49.998;19.880;2022-12-29T06:23:24;190.57;;;81.03;;
18267;SDS011;9260;49.998;19.880;2022-12-29T06:33:28;189.97;;;80.30;;
18267;SDS011;9260;49.998;19.880;2022-12-29T06:43:33;188.60;;;81.93;;
18267;SDS011;9260;49.998;19.880;2022-12-29T06:53:49;191.93;;;81.30;;
18267;SDS011;9260;49.998;19.880;2022-12-29T07:03:54;187.93;;;83.43;;
18267;SDS011;9260;49.998;19.880;2022-12-29T07:13:57;198.60;;;82.77;;
18267;SDS011;9260;49.998;19.880;2022-12-29T07:24:04;194.20;;;84.57;;
18267;SDS011;9260;49.998;19.880;2022-12-29T07:34:08;200.30;;;84.37;;
18267;SDS011;9260;49.998;19.880;2022-12-29T07:44:13;194.07;;;86.83;;
18267;SDS011;9260;49.998;19.880;2022-12-29T07:54:27;198.03;;;81.93;;
18267;SDS011;9260;49.998;19.880;2022-12-29T08:04:31;197.07;;;81.47;;
18267;SDS011;9260;49.998;19.880;2022-12-29T08:14:35;198.90;;;84.17;;
18267;SDS011;9260;49.998;19.880;2022-12-29T08:24:40;201.50;;;86.37;;
18267;SDS011;9260;49.998;19.880;2022-12-29T08:34:43;205.87;;;86.63;;
18267;SDS011;9260;49.998;19.880;2022-12-29T08:44:49;209.10;;;88.67;;
18267;SDS011;9260;49.998;19.880;2022-12-29T08:54:52;215.87;;;89.43;;
18267;SDS011;9260;49.998;19.880;2022-12-29T09:04:57;213.27;;;88.67;;
18267;SDS011;9260;49.998;19.880;2022-12-29T09:15:01;226.47;;;97.07;;
18267;SDS011;9260;49.998;19.880;2022-12-29T09:25:08;252.03;;;110.80;;
18267;SDS011;9260;49.998;19.880;2022-12-29T09:35:13;262.60;;;123.93;;
18267;SDS011;9260;49.998;19.880;2022-12-29T09:45:20;259.77;;;118.37;;
18267;SDS011;9260;49.998;19.880;2022-12-29T09:55:33;249.40;;;124.70;;
18267;SDS011;9260;49.998;19.880;2022-12-29T10:05:44;220.37;;;112.43;;
18267;SDS011;9260;49.998;19.880;2022-12-29T10:15:55;230.40;;;115.07;;
18267;SDS011;9260;49.998;19.880;2022-12-29T10:26:09;244.90;;;132.03;;
18267;SDS011;9260;49.998;19.880;2022-12-29T10:36:18;255.53;;;137.73;;
18267;SDS011;9260;49.998;19.880;2022-12-29T10:46:29;240.87;;;135.63;;
18267;SDS011;9260;49.998;19.880;2022-12-29T10:56:38;238.77;;;135.93;;
18267;SDS011;9260;49.998;19.880;2022-12-29T11:06:47;250.90;;;146.43;;
18267;SDS011;9260;49.998;19.880;2022-12-29T11:16:56;236.07;;;135.67;;
18267;SDS011;9260;49.998;19.880;2022-12-29T11:27:13;249.13;;;138.30;;
18267;SDS011;9260;49.998;19.880;2022-12-29T11:37:22;246.13;;;129.03;;
18267;SDS011;9260;49.998;19.880;2022-12-29T11:47:33;243.50;;;121.30;;
18267;SDS011;9260;49.998;19.880;2022-12-29T11:57:37;257.87;;;135.67;;
18267;SDS011;9260;49.998;19.880;2022-12-29T12:07:47;245.17;;;126.70;;
18267;SDS011;9260;49.998;19.880;2022-12-29T12:17:57;249.97;;;127.87;;
18267;SDS011;9260;49.998;19.880;2022-12-29T12:28:09;261.67;;;127.27;;
18267;SDS011;9260;49.998;19.880;2022-12-29T12:38:23;244.80;;;123.63;;
18267;SDS011;9260;49.998;19.880;2022-12-29T12:48:41;246.97;;;112.37;;
18267;SDS011;9260;49.998;19.880;2022-12-29T12:59:02;262.07;;;118.37;;
18267;SDS011;9260;49.998;19.880;2022-12-29T13:09:24;244.60;;;117.10;;
18267;SDS011;9260;49.998;19.880;2022-12-29T13:19:46;229.07;;;109.23;;
18267;SDS011;9260;49.998;19.880;2022-12-29T13:29:59;229.33;;;93.70;;
18267;SDS011;9260;49.998;19.880;2022-12-29T13:40:10;210.97;;;98.90;;
18267;SDS011;9260;49.998;19.880;2022-12-29T13:50:19;247.37;;;111.17;;
18267;SDS011;9260;49.998;19.880;2022-12-29T14:00:28;230.43;;;113.30;;
18267;SDS011;9260;49.998;19.880;2022-12-29T14:10:46;241.43;;;115.70;;
18267;SDS011;9260;49.998;19.880;2022-12-29T14:20:57;229.00;;;109.83;;
18267;SDS011;9260;49.998;19.880;2022-12-29T14:31:18;231.93;;;111.50;;
18267;SDS011;9260;49.998;19.880;2022-12-29T14:41:43;233.50;;;107.13;;
18267;SDS011;9260;49.998;19.880;2022-12-29T14:51:49;232.60;;;110.33;;
18267;SDS011;9260;49.998;19.880;2022-12-29T15:01:56;236.53;;;120.03;;
18267;SDS011;9260;49.998;19.880;2022-12-29T15:12:04;236.27;;;120.60;;
18267;SDS011;9260;49.998;19.880;2022-12-29T15:22:17;233.33;;;102.97;;
18267;SDS011;9260;49.998;19.880;2022-12-29T15:32:23;239.63;;;106.53;;
18267;SDS011;9260;49.998;19.880;2022-12-29T15:42:50;234.03;;;115.73;;
18267;SDS011;9260;49.998;19.880;2022-12-29T15:53:10;220.47;;;104.90;;
18267;SDS011;9260;49.998;19.880;2022-12-29T16:03:19;212.07;;;91.50;;
18267;SDS011;9260;49.998;19.880;2022-12-29T16:13:26;207.50;;;93.77;;
18267;SDS011;9260;49.998;19.880;2022-12-29T16:23:41;202.67;;;90.47;;
18267;SDS011;9260;49.998;19.880;2022-12-29T16:33:52;199.90;;;93.23;;
18267;SDS011;9260;49.998;19.880;2022-12-29T16:54:21;203.33;;;94.73;;
18267;SDS011;9260;49.998;19.880;2022-12-29T17:04:28;203.00;;;91.87;;
18267;SDS011;9260;49.998;19.880;2022-12-29T17:14:35;205.63;;;90.07;;
18267;SDS011;9260;49.998;19.880;2022-12-29T17:24:43;202.27;;;92.73;;
18267;SDS011;9260;49.998;19.880;2022-12-29T17:34:48;221.33;;;126.07;;
18267;SDS011;9260;49.998;19.880;2022-12-29T17:44:52;209.37;;;96.63;;
18267;SDS011;9260;49.998;19.880;2022-12-29T17:54:57;203.43;;;89.00;;
18267;SDS011;9260;49.998;19.880;2022-12-29T18:05:01;203.07;;;90.43;;
18267;SDS011;9260;49.998;19.880;2022-12-29T18:15:11;203.67;;;93.30;;
18267;SDS011;9260;49.998;19.880;2022-12-29T18:25:22;200.17;;;89.67;;
18267;SDS011;9260;49.998;19.880;2022-12-29T18:35:31;198.97;;;87.63;;
18267;SDS011;9260;49.998;19.880;2022-12-29T18:45:40;198.03;;;86.17;;
18267;SDS011;9260;49.998;19.880;2022-12-29T18:55:47;197.00;;;89.53;;
18267;SDS011;9260;49.998;19.880;2022-12-29T19:05:51;193.70;;;84.97;;
18267;SDS011;9260;49.998;19.880;2022-12-29T19:15:56;199.90;;;92.27;;
18267;SDS011;9260;49.998;19.880;2022-12-29T19:26:00;204.03;;;89.43;;
18267;SDS011;9260;49.998;19.880;2022-12-29T19:36:05;208.53;;;100.10;;
18267;SDS011;9260;49.998;19.880;2022-12-29T19:46:12;209.67;;;98.93;;
18267;SDS011;9260;49.998;19.880;2022-12-29T19:56:21;201.20;;;94.40;;
18267;SDS011;9260;49.998;19.880;2022-12-29T20:06:24;201.40;;;88.63;;
18267;SDS011;9260;49.998;19.880;2022-12-29T20:16:29;205.00;;;91.63;;
18267;SDS011;9260;49.998;19.880;2022-12-29T20:26:33;206.77;;;93.53;;
18267;SDS011;9260;49.998;19.880;2022-12-29T20:36:39;204.27;;;91.23;;
18267;SDS011;9260;49.998;19.880;2022-12-29T20:46:45;204.60;;;86.93;;
18267;SDS011;9260;49.998;19.880;2022-12-29T20:56:50;200.47;;;89.73;;
18267;SDS011;9260;49.998;19.880;2022-12-29T21:06:54;202.23;;;87.17;;
18267;SDS011;9260;49.998;19.880;2022-12-29T21:16:59;194.63;;;88.33;;
18267;SDS011;9260;49.998;19.880;2022-12-29T21:27:02;199.13;;;89.17;;
18267;SDS011;9260;49.998;19.880;2022-12-29T21:37:07;196.00;;;85.27;;
18267;SDS011;9260;49.998;19.880;2022-12-29T21:47:11;195.43;;;88.00;;
18267;SDS011;9260;49.998;19.880;2022-12-29T21:57:16;201.53;;;91.80;;
18267;SDS011;9260;49.998;19.880;2022-12-29T22:07:35;197.13;;;91.87;;
18267;SDS011;9260;49.998;19.880;2022-12-29T22:17:57;205.97;;;91.47;;
18267;SDS011;9260;49.998;19.880;2022-12-29T22:28:01;201.57;;;94.53;;
18267;SDS011;9260;49.998;19.880;2022-12-29T22:38:06;199.00;;;91.47;;
18267;SDS011;9260;49.998;19.880;2022-12-29T22:48:10;203.87;;;95.63;;
18267;SDS011;9260;49.998;19.880;2022-12-29T22:58:16;204.33;;;96.37;;
18267;SDS011;9260;49.998;19.880;2022-12-29T23:08:19;198.80;;;91.47;;
18267;SDS011;9260;49.998;19.880;2022-12-29T23:18:24;202.77;;;94.67;;
18267;SDS011;9260;49.998;19.880;2022-12-29T23:28:28;192.77;;;86.60;;
18267;SDS011;9260;49.998;19.880;2022-12-29T23:38:33;213.53;;;101.37;;
18267;SDS011;9260;49.998;19.880;2022-12-29T23:48:37;194.30;;;89.00;;
18267;SDS011;9260;49.998;19.880;2022-12-29T23:58:42;197.00;;;86.77;;
